sensor_id;sensor_type;location;lat;lon;timestamp;temperature;humidity
1524;DHT22;755;53.658;10.118;2022-07-04T00:01:28;15.80;99.90
1524;DHT22;755;53.658;10.118;2022-07-04T00:11:31;15.80;99.90
1524;DHT22;755;53.658;10.118;2022-07-04T00:21:39;15.70;99.90
1524;DHT22;755;53.658;10.118;2022-07-04T00:31:45;15.50;99.90
1524;DHT22;755;53.658;10.118;2022-07-04T00:42:02;15.50;99.90
1524;DHT22;755;53.658;10.118;2022-07-04T00:52:35;15.50;99.90
1524;DHT22;755;53.658;10.118;2022-07-04T01:02:50;15.40;99.90
1524;DHT22;755;53.658;10.118;2022-07-04T01:12:53;15.40;99.90
1524;DHT22;755;53.658;10.118;2022-07-04T01:22:58;15.30;99.90
1524;DHT22;755;53.658;10.118;2022-07-04T01:33:02;15.20;99.90
1524;DHT22;755;53.658;10.118;2022-07-04T01:43:06;15.10;99.90
1524;DHT22;755;53.658;10.118;2022-07-04T01:53:09;15.00;99.90
1524;DHT22;755;53.658;10.118;2022-07-04T02:03:14;15.00;99.90
1524;DHT22;755;53.658;10.118;2022-07-04T02:13:17;14.90;99.90
1524;DHT22;755;53.658;10.118;2022-07-04T02:23:21;14.90;99.90
1524;DHT22;755;53.658;10.118;2022-07-04T02:33:24;14.80;99.90
1524;DHT22;755;53.658;10.118;2022-07-04T02:54:17;14.70;99.90
1524;DHT22;755;53.658;10.118;2022-07-04T03:04:20;14.60;99.90
1524;DHT22;755;53.658;10.118;2022-07-04T03:14:26;14.60;99.90
1524;DHT22;755;53.658;10.118;2022-07-04T03:24:29;14.50;99.90
1524;DHT22;755;53.658;10.118;2022-07-04T03:34:33;14.50;99.90
1524;DHT22;755;53.658;10.118;2022-07-04T03:44:43;14.50;99.90
1524;DHT22;755;53.658;10.118;2022-07-04T03:55:14;14.60;99.90
1524;DHT22;755;53.658;10.118;2022-07-04T04:05:18;14.60;99.90
1524;DHT22;755;53.658;10.118;2022-07-04T04:15:33;14.60;99.90
1524;DHT22;755;53.658;10.118;2022-07-04T04:25:36;14.70;99.90
1524;DHT22;755;53.658;10.118;2022-07-04T04:35:40;14.80;99.90
1524;DHT22;755;53.658;10.118;2022-07-04T04:45:44;14.80;99.90
1524;DHT22;755;53.658;10.118;2022-07-04T04:55:48;14.80;99.90
1524;DHT22;755;53.658;10.118;2022-07-04T05:05:51;15.00;99.90
1524;DHT22;755;53.658;10.118;2022-07-04T05:15:56;15.20;99.90
1524;DHT22;755;53.658;10.118;2022-07-04T05:25:59;15.60;99.90
1524;DHT22;755;53.658;10.118;2022-07-04T05:36:03;16.20;99.90
1524;DHT22;755;53.658;10.118;2022-07-04T05:46:06;16.30;99.90
1524;DHT22;755;53.658;10.118;2022-07-04T05:56:11;16.20;99.90
1524;DHT22;755;53.658;10.118;2022-07-04T06:06:14;16.50;99.90
1524;DHT22;755;53.658;10.118;2022-07-04T06:27:19;16.90;99.90
1524;DHT22;755;53.658;10.118;2022-07-04T06:37:22;17.00;99.90
1524;DHT22;755;53.658;10.118;2022-07-04T06:47:26;17.00;7.00
1524;DHT22;755;53.658;10.118;2022-07-04T06:57:29;17.40;99.90
1524;DHT22;755;53.658;10.118;2022-07-04T07:07:33;18.00;1.00
1524;DHT22;755;53.658;10.118;2022-07-04T07:17:36;18.20;99.90
1524;DHT22;755;53.658;10.118;2022-07-04T07:27:40;18.10;68.10
1524;DHT22;755;53.658;10.118;2022-07-04T07:38:04;18.40;1.00
1524;DHT22;755;53.658;10.118;2022-07-04T07:59:02;18.90;99.90
1524;DHT22;755;53.658;10.118;2022-07-04T08:19:35;18.80;99.90
1524;DHT22;755;53.658;10.118;2022-07-04T08:29:37;20.30;1.00
1524;DHT22;755;53.658;10.118;2022-07-04T08:39:41;20.60;99.90
1524;DHT22;755;53.658;10.118;2022-07-04T08:49:46;21.70;99.90
1524;DHT22;755;53.658;10.118;2022-07-04T08:59:52;21.30;99.90
1524;DHT22;755;53.658;10.118;2022-07-04T09:09:56;21.80;99.90
1524;DHT22;755;53.658;10.118;2022-07-04T09:20:16;21.30;99.90
1524;DHT22;755;53.658;10.118;2022-07-04T09:30:20;21.80;99.90
1524;DHT22;755;53.658;10.118;2022-07-04T09:40:26;21.80;99.90
1524;DHT22;755;53.658;10.118;2022-07-04T09:50:28;20.70;99.90
1524;DHT22;755;53.658;10.118;2022-07-04T10:00:33;23.00;1.00
1524;DHT22;755;53.658;10.118;2022-07-04T10:10:36;23.10;1.00
1524;DHT22;755;53.658;10.118;2022-07-04T10:20:42;22.70;1.00
1524;DHT22;755;53.658;10.118;2022-07-04T10:30:48;21.40;99.90
1524;DHT22;755;53.658;10.118;2022-07-04T10:40:54;22.80;1.00
1524;DHT22;755;53.658;10.118;2022-07-04T10:50:59;21.30;40.40
1524;DHT22;755;53.658;10.118;2022-07-04T11:01:12;21.40;99.90
1524;DHT22;755;53.658;10.118;2022-07-04T11:11:48;21.50;99.90
1524;DHT22;755;53.658;10.118;2022-07-04T11:21:51;21.10;99.90
1524;DHT22;755;53.658;10.118;2022-07-04T11:31:53;22.40;99.90
1524;DHT22;755;53.658;10.118;2022-07-04T11:41:58;22.20;99.90
1524;DHT22;755;53.658;10.118;2022-07-04T11:52:19;21.20;99.90
1524;DHT22;755;53.658;10.118;2022-07-04T12:02:24;21.20;58.70
1524;DHT22;755;53.658;10.118;2022-07-04T12:12:26;21.40;92.70
1524;DHT22;755;53.658;10.118;2022-07-04T12:22:35;21.40;99.90
1524;DHT22;755;53.658;10.118;2022-07-04T12:32:45;22.60;47.80
1524;DHT22;755;53.658;10.118;2022-07-04T12:42:54;23.10;99.90
1524;DHT22;755;53.658;10.118;2022-07-04T12:52:56;22.40;1.00
1524;DHT22;755;53.658;10.118;2022-07-04T13:03:00;23.00;10.50
1524;DHT22;755;53.658;10.118;2022-07-04T13:13:02;23.70;1.00
1524;DHT22;755;53.658;10.118;2022-07-04T13:23:05;23.00;1.00
1524;DHT22;755;53.658;10.118;2022-07-04T13:33:07;22.10;1.00
1524;DHT22;755;53.658;10.118;2022-07-04T13:43:11;21.80;1.00
1524;DHT22;755;53.658;10.118;2022-07-04T13:53:13;21.70;1.00
1524;DHT22;755;53.658;10.118;2022-07-04T14:03:17;21.20;4.70
1524;DHT22;755;53.658;10.118;2022-07-04T14:13:19;21.50;97.20
1524;DHT22;755;53.658;10.118;2022-07-04T14:23:22;21.40;99.90
1524;DHT22;755;53.658;10.118;2022-07-04T14:33:38;21.50;99.90
1524;DHT22;755;53.658;10.118;2022-07-04T14:43:42;23.10;99.90
1524;DHT22;755;53.658;10.118;2022-07-04T14:53:45;23.30;71.80
1524;DHT22;755;53.658;10.118;2022-07-04T15:03:48;22.80;49.30
1524;DHT22;755;53.658;10.118;2022-07-04T15:13:50;22.40;29.10
1524;DHT22;755;53.658;10.118;2022-07-04T15:23:53;22.20;24.10
1524;DHT22;755;53.658;10.118;2022-07-04T15:34:15;22.30;77.10
1524;DHT22;755;53.658;10.118;2022-07-04T15:44:18;22.10;97.80
1524;DHT22;755;53.658;10.118;2022-07-04T15:54:22;22.10;52.10
1524;DHT22;755;53.658;10.118;2022-07-04T16:04:25;21.80;99.90
1524;DHT22;755;53.658;10.118;2022-07-04T16:14:27;21.70;99.90
1524;DHT22;755;53.658;10.118;2022-07-04T16:24:30;21.40;99.90
1524;DHT22;755;53.658;10.118;2022-07-04T16:34:33;21.40;99.90
1524;DHT22;755;53.658;10.118;2022-07-04T16:44:37;21.10;1.00
1524;DHT22;755;53.658;10.118;2022-07-04T16:54:39;20.90;99.90
1524;DHT22;755;53.658;10.118;2022-07-04T17:04:42;20.60;99.90
1524;DHT22;755;53.658;10.118;2022-07-04T17:14:44;20.50;99.90
1524;DHT22;755;53.658;10.118;2022-07-04T17:24:48;20.30;99.90
1524;DHT22;755;53.658;10.118;2022-07-04T17:34:50;20.00;1.00
1524;DHT22;755;53.658;10.118;2022-07-04T17:44:53;19.60;99.90
1524;DHT22;755;53.658;10.118;2022-07-04T17:54:55;19.30;99.90
1524;DHT22;755;53.658;10.118;2022-07-04T18:04:58;19.50;99.90
1524;DHT22;755;53.658;10.118;2022-07-04T18:15:00;19.10;99.90
1524;DHT22;755;53.658;10.118;2022-07-04T18:25:05;18.60;99.90
1524;DHT22;755;53.658;10.118;2022-07-04T18:35:08;18.50;1.00
1524;DHT22;755;53.658;10.118;2022-07-04T18:45:11;18.40;1.00
1524;DHT22;755;53.658;10.118;2022-07-04T18:55:14;18.20;1.00
1524;DHT22;755;53.658;10.118;2022-07-04T19:05:17;18.10;99.90
1524;DHT22;755;53.658;10.118;2022-07-04T19:15:19;17.80;99.90
1524;DHT22;755;53.658;10.118;2022-07-04T19:25:23;17.60;99.90
1524;DHT22;755;53.658;10.118;2022-07-04T19:35:25;17.50;1.00
1524;DHT22;755;53.658;10.118;2022-07-04T19:45:29;17.40;1.00
1524;DHT22;755;53.658;10.118;2022-07-04T19:55:31;17.20;1.00
1524;DHT22;755;53.658;10.118;2022-07-04T20:05:34;16.90;1.00
1524;DHT22;755;53.658;10.118;2022-07-04T20:15:36;16.80;6.30
1524;DHT22;755;53.658;10.118;2022-07-04T20:25:40;16.70;29.80
1524;DHT22;755;53.658;10.118;2022-07-04T20:35:42;16.60;99.90
1524;DHT22;755;53.658;10.118;2022-07-04T20:45:45;16.50;99.90
1524;DHT22;755;53.658;10.118;2022-07-04T20:55:47;16.40;99.90
1524;DHT22;755;53.658;10.118;2022-07-04T21:05:50;16.20;1.00
1524;DHT22;755;53.658;10.118;2022-07-04T21:15:53;16.10;1.00
1524;DHT22;755;53.658;10.118;2022-07-04T21:25:56;15.90;76.90
1524;DHT22;755;53.658;10.118;2022-07-04T21:35:58;15.50;1.00
1524;DHT22;755;53.658;10.118;2022-07-04T21:46:02;15.50;99.90
1524;DHT22;755;53.658;10.118;2022-07-04T21:56:04;15.40;99.90
1524;DHT22;755;53.658;10.118;2022-07-04T22:06:07;15.10;1.00
1524;DHT22;755;53.658;10.118;2022-07-04T22:16:10;14.90;99.90
1524;DHT22;755;53.658;10.118;2022-07-04T22:26:17;14.90;99.90
1524;DHT22;755;53.658;10.118;2022-07-04T22:36:20;14.80;1.00
1524;DHT22;755;53.658;10.118;2022-07-04T22:46:23;14.60;1.00
1524;DHT22;755;53.658;10.118;2022-07-04T22:56:26;14.70;99.90
1524;DHT22;755;53.658;10.118;2022-07-04T23:06:29;14.70;1.00
1524;DHT22;755;53.658;10.118;2022-07-04T23:16:32;14.70;1.00
1524;DHT22;755;53.658;10.118;2022-07-04T23:26:37;14.70;13.70
1524;DHT22;755;53.658;10.118;2022-07-04T23:36:40;14.60;93.60
1524;DHT22;755;53.658;10.118;2022-07-04T23:46:44;14.50;99.90
1524;DHT22;755;53.658;10.118;2022-07-04T23:56:46;14.40;99.90
